Milwaukee, Wisconsin
Traffic Map
Current Weather Conditions
Milwaukee, Wisconsin
Few Clouds
Few Clouds
22°
Feels Like: 22°
Wind Chill: 22° Ceiling: Unl
Heat Index: 22° Visibility: 10mi
Dew Point: 21° Wind: 5mph
Humidity: 91% Direction: 220° (SW)
Pressure: 29.8in Gusts: 0mph
Raw Report DataKMKE 230452Z 22004KT 10SM FEW150 FEW250 22/21 A2980 RMK AO2 SLP087 T02220206
Traffic Incident Summary
Active as of:
Severity:
Category:
InformationThere was an issue retrieving the traffic information for this location. Please try a different location or try again shortly.
Advertisements
Track Severe Weather on mobile